| time (UTC) | temp F | wind direction | speed MPH | gust MPH | rain 1hr in | rain 24hr in | rain mn in | humidity % | barometer mb |
| 20260903113016 | 62 | 0.0 | 0.0 | 0.00 | 0.10 | 0.10 | 11 | 1013.0 | |
| 20260903112535 | 62 | 0.0 | 0.0 | 0.00 | 0.10 | 0.10 | 11 | 1013.0 | |
| 20260903112016 | 62 | 0.0 | 0.0 | 0.00 | 0.10 | 0.10 | 11 | 1013.0 | |
| 20260903111515 | 62 | 0.0 | 0.0 | 0.00 | 0.10 | 0.10 | 11 | 1013.0 | |
| 20260903111016 | 62 | 0.0 | 0.0 | 0.00 | 0.10 | 0.10 | 11 | 1012.9 | |
| 20260903110516 | 62 | 0.0 | 0.0 | 0.00 | 0.10 | 0.10 | 11 | 1012.9 | |
| 20260903110035 | 62 | 0.0 | 0.0 | 0.00 | 0.10 | 0.10 | 11 | 1012.8 | |
| 20260903105515 | 62 | 0.0 | 0.0 | 0.00 | 0.10 | 0.10 | 11 | 1012.9 | |
| 20260903105015 | 62 | 0.0 | 0.0 | 0.00 | 0.10 | 0.10 | 12 | 1013.0 | |
| 20260903104516 | 62 | 0.0 | 0.0 | 0.00 | 0.10 | 0.10 | 12 | 1013.0 | |
| 20260903104015 | 62 | 0.0 | 0.0 | 0.01 | 0.10 | 0.10 | 12 | 1012.9 | |
| 20260903103515 | 62 | 0.0 | 0.0 | 0.02 | 0.10 | 0.10 | 12 | 1012.8 | |
| 20260903103035 | 62 | 0.0 | 0.0 | 0.02 | 0.10 | 0.10 | 13 | 1012.9 | |
| 20260903102515 | 62 | 0.0 | 0.0 | 0.02 | 0.10 | 0.10 | 13 | 1012.9 | |
| 20260903102055 | 62 | 0.0 | 0.0 | 0.02 | 0.10 | 0.10 | 13 | 1013.0 | |
| 20260903101515 | 62 | 0.0 | 0.0 | 0.03 | 0.10 | 0.10 | 13 | 1013.1 | |
| 20260903101015 | 62 | 0.0 | 0.0 | 0.03 | 0.10 | 0.10 | 13 | 1013.1 | |
| 20260903100515 | 62 | 0.0 | 0.0 | 0.05 | 0.10 | 0.10 | 14 | 1012.9 | |
| 20260903100015 | 62 | 0.0 | 0.0 | 0.06 | 0.10 | 0.10 | 14 | 1012.9 | |
| 20260903095535 | 62 | 0.0 | 0.0 | 0.06 | 0.10 | 0.10 | 14 | 1012.9 | |
| 20260903095015 | 62 | 0.0 | 0.0 | 0.07 | 0.10 | 0.10 | 14 | 1012.9 | |
| 20260903094515 | 62 | 0.0 | 0.0 | 0.07 | 0.10 | 0.10 | 14 | 1013.0 | |
| 20260903094015 | 62 | 0.0 | 0.0 | 0.06 | 0.09 | 0.09 | 14 | 1013.1 | |
| 20260903093515 | 62 | 0.0 | 0.0 | 0.05 | 0.08 | 0.08 | 15 | 1013.1 | |
| 20260903093015 | 62 | 0.0 | 0.0 | 0.05 | 0.08 | 0.08 | 15 | 1013.1 | |
| 20260903092515 | 62 | 0.0 | 0.0 | 0.05 | 0.08 | 0.08 | 15 | 1013.1 | |
| 20260903092015 | 62 | 0.0 | 0.0 | 0.05 | 0.08 | 0.08 | 16 | 1013.2 | |
| 20260903091515 | 62 | 0.0 | 0.0 | 0.04 | 0.07 | 0.07 | 16 | 1013.4 | |
| 20260903091015 | 62 | 0.0 | 0.0 | 0.04 | 0.07 | 0.07 | 16 | 1013.4 | |
| 20260903090515 | 62 | 0.0 | 2.0 | 0.02 | 0.05 | 0.05 | 17 | 1013.5 | |
| 20260903090015 | 62 | 179 | 0.0 | 2.0 | 0.01 | 0.04 | 0.04 | 18 | 1013.5 |
| 20260903085515 | 62 | 0.0 | 0.0 | 0.01 | 0.04 | 0.04 | 19 | 1013.3 | |
| 20260903085015 | 62 | 0.0 | 0.0 | 0.00 | 0.03 | 0.03 | 19 | 1013.3 | |
| 20260903084515 | 62 | 0.0 | 0.0 | 0.02 | 0.03 | 0.03 | 20 | 1013.3 | |
| 20260903084015 | 62 | 0.0 | 0.0 | 0.03 | 0.03 | 0.03 | 19 | 1013.5 | |
| 20260903083515 | 62 | 0.0 | 0.0 | 0.03 | 0.03 | 0.03 | 20 | 1013.4 | |
| 20260903083015 | 62 | 0.0 | 0.0 | 0.03 | 0.03 | 0.03 | 21 | 1013.3 | |
| 20260903082515 | 63 | 0.0 | 0.0 | 0.03 | 0.03 | 0.03 | 22 | 1013.4 | |
| 20260903082015 | 63 | 0.0 | 0.0 | 0.03 | 0.03 | 0.03 | 23 | 1013.5 | |
| 20260903081535 | 63 | 0.0 | 0.0 | 0.03 | 0.03 | 0.03 | 25 | 1013.6 | |
| 20260903081015 | 63 | 0.0 | 0.0 | 0.03 | 0.03 | 0.03 | 28 | 1013.5 | |
| 20260903080515 | 63 | 0.0 | 0.0 | 0.03 | 0.03 | 0.03 | 31 | 1013.4 | |
| 20260903080015 | 63 | 0.0 | 0.0 | 0.03 | 0.03 | 0.03 | 34 | 1013.7 | |
| 20260903075515 | 63 | 0.0 | 0.0 | 0.03 | 0.03 | 0.03 | 37 | 1013.7 | |
| 20260903075035 | 63 | 0.0 | 0.0 | 0.03 | 0.03 | 0.03 | 41 | 1013.8 | |
| 20260903074515 | 63 | 0.0 | 0.0 | 0.01 | 0.01 | 0.01 | 42 | 1013.6 | |
| 20260903074015 | 63 | 0.0 | 0.0 | 0.00 | 0.00 | 0.00 | 40 | 1013.5 | |
| 20260903073515 | 63 | 0.0 | 0.0 | 0.00 | 0.00 | 0.00 | 39 | 1013.4 | |
| 20260903073015 | 63 | 0.0 | 0.0 | 0.00 | 0.00 | 0.00 | 41 | 1013.5 | |
| 20260903072515 | 63 | 0.0 | 0.0 | 0.00 | 0.00 | 0.00 | 41 | 1013.7 | |
| 20260903072015 | 63 | 0.0 | 0.0 | 0.00 | 0.00 | 0.00 | 40 | 1013.8 | |
| 20260903071515 | 63 | 0.0 | 0.0 | 0.00 | 0.00 | 0.00 | 41 | 1013.7 | |
| 20260903071015 | 63 | 0.0 | 0.0 | 0.00 | 0.00 | 0.00 | 41 | 1013.7 | |
| 20260903070515 | 63 | 0.0 | 0.0 | 0.00 | 0.00 | 0.00 | 40 | 1013.6 | |
| 20260903070015 | 63 | 0.0 | 0.0 | 0.00 | 0.00 | 0.00 | 38 | 1013.8 | |
| 20260903065615 | 63 | 0.0 | 0.0 | 0.00 | 0.00 | 0.00 | 39 | 1013.9 | |
| 20260903065015 | 63 | 0.0 | 0.0 | 0.00 | 0.00 | 0.00 | 39 | 1014.1 | |
| 20260903064515 | 63 | 0.0 | 0.0 | 0.00 | 0.00 | 0.00 | 38 | 1014.2 | |
| 20260903064015 | 63 | 0.0 | 0.0 | 0.00 | 0.00 | 0.00 | 37 | 1014.4 | |
| 20260903063515 | 63 | 0.0 | 0.0 | 0.00 | 0.00 | 0.00 | 39 | 1014.6 | |
| 20260903063015 | 63 | 0.0 | 0.0 | 0.00 | 0.00 | 0.00 | 39 | 1014.9 | |
| 20260903062515 | 63 | 0.0 | 0.0 | 0.00 | 0.00 | 0.00 | 37 | 1015.0 | |
| 20260903062015 | 63 | 0.0 | 0.0 | 0.00 | 0.00 | 0.00 | 36 | 1015.0 | |
| 20260903061515 | 63 | 0.0 | 0.0 | 0.00 | 0.00 | 0.00 | 38 | 1015.1 | |
| 20260903061015 | 63 | 0.0 | 0.0 | 0.00 | 0.00 | 0.00 | 37 | 1015.2 | |
| 20260903060515 | 63 | 0.0 | 0.0 | 0.00 | 0.00 | 0.00 | 35 | 1015.3 | |
| 20260903060015 | 63 | 0.0 | 0.0 | 0.00 | 0.00 | 0.00 | 34 | 1015.4 | |
| 20260903055515 | 63 | 0.0 | 0.0 | 0.00 | 0.00 | 0.00 | 35 | 1015.6 | |
| 20260903055015 | 63 | 0.0 | 0.0 | 0.00 | 0.00 | 0.00 | 37 | 1015.7 | |
| 20260903054515 | 63 | 0.0 | 0.0 | 0.00 | 0.00 | 0.00 | 36 | 1015.8 | |
| 20260903054015 | 63 | 0.0 | 0.0 | 0.00 | 0.00 | 0.00 | 35 | 1015.8 | |
| 20260903053515 | 63 | 0.0 | 0.0 | 0.00 | 0.00 | 0.00 | 34 | 1015.9 | |
| 20260903053015 | 63 | 0.0 | 0.0 | 0.00 | 0.00 | 0.00 | 35 | 1015.9 | |
| 20260903052515 | 63 | 0.0 | 0.0 | 0.00 | 0.00 | 0.00 | 37 | 1015.9 | |
| 20260903052055 | 63 | 0.0 | 0.0 | 0.00 | 0.00 | 0.00 | 38 | 1015.9 | |
| 20260903051515 | 63 | 0.0 | 0.0 | 0.00 | 0.00 | 0.00 | 39 | 1015.8 | |
| 20260903051035 | 63 | 0.0 | 0.0 | 0.00 | 0.00 | 0.00 | 40 | 1015.7 | |
| 20260903050515 | 63 | 0.0 | 0.0 | 0.00 | 0.00 | 0.00 | 39 | 1015.6 | |
| 20260903050017 | 63 | 0.0 | 0.0 | 0.00 | 0.00 | 0.00 | 39 | 1015.5 | |
| 20260903045517 | 63 | 0.0 | 0.0 | 0.00 | 0.00 | 0.00 | 40 | 1015.6 | |
| 20260903045057 | 64 | 0.0 | 0.0 | 0.00 | 0.00 | 0.00 | 41 | 1015.7 | |
| 20260903044517 | 64 | 0.0 | 0.0 | 0.00 | 0.00 | 0.00 | 41 | 1015.8 | |
| 20260903044016 | 64 | 0.0 | 0.0 | 0.00 | 0.00 | 0.00 | 41 | 1016.0 | |
| 20260903043517 | 64 | 0.0 | 0.0 | 0.00 | 0.00 | 0.00 | 43 | 1016.2 | |
| 20260903043017 | 64 | 0.0 | 0.0 | 0.00 | 0.00 | 0.00 | 44 | 1016.3 | |
| 20260903042517 | 64 | 0.0 | 0.0 | 0.00 | 0.00 | 0.00 | 45 | 1016.2 | |
| 20260903042017 | 64 | 0.0 | 0.0 | 0.00 | 0.00 | 0.00 | 45 | 1016.2 | |
| 20260903041517 | 64 | 0.0 | 0.0 | 0.00 | 0.00 | 0.00 | 45 | 1016.3 | |
| 20260903041017 | 64 | 0.0 | 0.0 | 0.00 | 0.00 | 0.00 | 46 | 1016.1 | |
| 20260903040517 | 64 | 0.0 | 0.0 | 0.00 | 0.00 | 0.00 | 45 | 1016.0 | |
| 20260903040017 | 64 | 0.0 | 0.0 | 0.00 | 0.00 | 0.00 | 45 | 1016.1 | |
| 20260903035516 | 64 | 0.0 | 0.0 | 0.00 | 0.00 | 0.00 | 46 | 1016.1 | |
| 20260903035016 | 64 | 0.0 | 0.0 | 0.00 | 0.00 | 0.00 | 47 | 1016.1 | |
| 20260903034516 | 64 | 0.0 | 0.0 | 0.00 | 0.00 | 0.00 | 50 | 1016.0 | |
| 20260903034036 | 64 | 0.0 | 0.0 | 0.00 | 0.00 | 0.00 | 49 | 1016.0 | |
| 20260903033516 | 64 | 0.0 | 0.0 | 0.00 | 0.00 | 0.00 | 50 | 1016.1 | |
| 20260903033016 | 64 | 0.0 | 0.0 | 0.00 | 0.00 | 0.00 | 51 | 1016.3 | |
| 20260903032516 | 64 | 0.0 | 0.0 | 0.00 | 0.00 | 0.00 | 52 | 1016.3 | |
| 20260903032016 | 64 | 0.0 | 0.0 | 0.00 | 0.00 | 0.00 | 53 | 1016.4 | |
| 20260903031516 | 64 | 0.0 | 0.0 | 0.00 | 0.00 | 0.00 | 54 | 1016.6 | |
| 20260903031036 | 64 | 0.0 | 0.0 | 0.00 | 0.00 | 0.00 | 55 | 1016.6 | |
| 20260903030516 | 64 | 0.0 | 0.0 | 0.00 | 0.00 | 0.00 | 56 | 1016.6 | |
| 20260903030036 | 64 | 0.0 | 0.0 | 0.00 | 0.00 | 0.00 | 56 | 1016.7 | |
| 20260903025516 | 64 | 0.0 | 0.0 | 0.00 | 0.00 | 0.00 | 56 | 1016.8 | |
| 20260903025016 | 64 | 0.0 | 0.0 | 0.00 | 0.00 | 0.00 | 55 | 1016.9 | |
| 20260903024517 | 64 | 0.0 | 0.0 | 0.00 | 0.00 | 0.00 | 56 | 1016.9 | |
| 20260903024016 | 64 | 0.0 | 0.0 | 0.00 | 0.00 | 0.00 | 59 | 1016.9 | |
| 20260903023516 | 64 | 0.0 | 0.0 | 0.00 | 0.00 | 0.00 | 60 | 1016.9 | |
| 20260903023016 | 64 | 0.0 | 0.0 | 0.00 | 0.00 | 0.00 | 60 | 1017.0 | |
| 20260903022516 | 64 | 0.0 | 0.0 | 0.00 | 0.00 | 0.00 | 61 | 1017.0 | |
| 20260903022016 | 64 | 0.0 | 0.0 | 0.00 | 0.00 | 0.00 | 60 | 1017.1 | |
| 20260903021516 | 64 | 0.0 | 0.0 | 0.00 | 0.00 | 0.00 | 61 | 1017.1 | |
| 20260903021036 | 64 | 0.0 | 0.0 | 0.00 | 0.00 | 0.00 | 61 | 1016.9 | |
| 20260903020516 | 64 | 0.0 | 0.0 | 0.00 | 0.00 | 0.00 | 63 | 1017.0 | |
| 20260903020016 | 64 | 0.0 | 0.0 | 0.00 | 0.00 | 0.00 | 64 | 1017.0 | |
| 20260903015536 | 64 | 0.0 | 0.0 | 0.00 | 0.00 | 0.00 | 64 | 1017.1 | |
| 20260903015016 | 64 | 0.0 | 0.0 | 0.00 | 0.00 | 0.00 | 64 | 1017.3 | |
| 20260903014516 | 64 | 0.0 | 0.0 | 0.00 | 0.00 | 0.00 | 64 | 1017.4 | |
| 20260903014016 | 64 | 0.0 | 0.0 | 0.00 | 0.00 | 0.00 | 65 | 1017.4 | |
| 20260903013516 | 64 | 0.0 | 2.0 | 0.00 | 0.00 | 0.00 | 65 | 1017.2 | |
| 20260903013016 | 64 | 235 | 0.0 | 2.0 | 0.00 | 0.00 | 0.00 | 66 | 1017.2 |
| 20260903012536 | 64 | 0.0 | 2.0 | 0.00 | 0.00 | 0.00 | 67 | 1017.0 | |
| 20260903012036 | 64 | 223 | 0.0 | 2.0 | 0.00 | 0.00 | 0.00 | 67 | 1016.7 |
| 20260903011516 | 64 | 221 | 0.0 | 2.0 | 0.00 | 0.00 | 0.00 | 66 | 1016.6 |
| 20260903011016 | 65 | 0.0 | 0.0 | 0.00 | 0.00 | 0.00 | 66 | 1016.7 | |
| 20260903010516 | 65 | 0.0 | 0.0 | 0.00 | 0.00 | 0.00 | 67 | 1016.7 | |
| 20260903010016 | 65 | 0.0 | 0.0 | 0.00 | 0.00 | 0.00 | 68 | 1016.8 | |
| 20260903005516 | 65 | 0.0 | 0.0 | 0.00 | 0.00 | 0.00 | 68 | 1016.8 | |
| 20260903005016 | 65 | 0.0 | 0.0 | 0.00 | 0.00 | 0.00 | 69 | 1016.9 | |
| 20260903004516 | 65 | 0.0 | 0.0 | 0.00 | 0.00 | 0.00 | 68 | 1017.0 | |
| 20260903004016 | 65 | 0.0 | 1.0 | 0.00 | 0.00 | 0.00 | 70 | 1017.1 | |
| 20260903003516 | 65 | 5 | 0.0 | 1.0 | 0.00 | 0.00 | 0.00 | 70 | 1017.0 |
| 20260903003016 | 65 | 5 | 0.0 | 1.0 | 0.00 | 0.00 | 0.00 | 69 | 1017.0 |
| 20260903002516 | 65 | 5 | 0.0 | 1.0 | 0.00 | 0.00 | 0.00 | 70 | 1017.0 |
| 20260903002035 | 65 | 0.0 | 2.0 | 0.00 | 0.00 | 0.00 | 69 | 1017.0 | |
| 20260903001515 | 65 | 141 | 0.0 | 2.0 | 0.00 | 0.00 | 0.00 | 71 | 1017.1 |
| 20260903001016 | 65 | 158 | 0.0 | 2.0 | 0.00 | 0.00 | 0.00 | 70 | 1017.2 |
| 20260903000516 | 65 | 0.0 | 0.0 | 0.00 | 0.00 | 0.00 | 68 | 1017.1 | |
| 20260903000036 | 65 | 0.0 | 0.0 | 0.00 | 0.00 | 0.00 | 68 | 1017.1 | |
| 20260902235536 | 65 | 0.0 | 0.0 | 0.00 | 0.00 | 0.00 | 71 | 1017.2 | |
| 20260902235016 | 65 | 0.0 | 0.0 | 0.00 | 0.00 | 0.00 | 71 | 1017.4 | |
| 20260902234516 | 65 | 0.0 | 0.0 | 0.00 | 0.00 | 0.00 | 71 | 1017.5 | |
| 20260902234016 | 65 | 0.0 | 0.0 | 0.00 | 0.00 | 0.00 | 72 | 1017.5 | |
| 20260902233516 | 66 | 0.0 | 0.0 | 0.00 | 0.00 | 0.00 | 72 | 1017.6 | |
| 20260902233016 | 66 | 0.0 | 0.0 | 0.00 | 0.00 | 0.00 | 72 | 1017.7 | |
| 20260902232516 | 66 | 0.0 | 0.0 | 0.00 | 0.00 | 0.00 | 72 | 1017.8 | |
| 20260902232016 | 66 | 0.0 | 0.0 | 0.00 | 0.00 | 0.00 | 73 | 1017.8 | |
| 20260902231516 | 66 | 0.0 | 0.0 | 0.00 | 0.00 | 0.00 | 72 | 1017.8 | |
| 20260902231016 | 66 | 0.0 | 0.0 | 0.00 | 0.00 | 0.00 | 72 | 1017.9 | |
| 20260902230516 | 67 | 0.0 | 0.0 | 0.00 | 0.00 | 0.00 | 73 | 1018.0 | |
| 20260902230035 | 67 | 0.0 | 0.0 | 0.00 | 0.00 | 0.00 | 72 | 1018.0 | |
| 20260902225515 | 67 | 0.0 | 0.0 | 0.00 | 0.00 | 0.00 | 72 | 1017.9 | |
| 20260902225016 | 67 | 0.0 | 0.0 | 0.00 | 0.00 | 0.00 | 71 | 1017.8 | |
| 20260902224516 | 67 | 0.0 | 0.0 | 0.00 | 0.00 | 0.00 | 71 | 1017.7 | |
| 20260902224015 | 67 | 0.0 | 0.0 | 0.00 | 0.00 | 0.00 | 71 | 1017.7 | |
| 20260902223515 | 67 | 0.0 | 0.0 | 0.00 | 0.00 | 0.00 | 72 | 1017.8 | |
| 20260902223015 | 68 | 0.0 | 0.0 | 0.00 | 0.00 | 0.00 | 73 | 1018.0 | |
| 20260902222536 | 68 | 0.0 | 0.0 | 0.00 | 0.00 | 0.00 | 72 | 1018.1 | |
| 20260902222016 | 68 | 0.0 | 1.0 | 0.00 | 0.00 | 0.00 | 72 | 1018.2 | |
| 20260902221515 | 68 | 255 | 0.0 | 1.0 | 0.00 | 0.00 | 0.00 | 73 | 1018.2 |
| 20260902221015 | 68 | 0.0 | 0.0 | 0.00 | 0.00 | 0.00 | 72 | 1018.3 | |
| 20260902220515 | 69 | 0.0 | 0.0 | 0.00 | 0.00 | 0.00 | 73 | 1018.2 | |
| 20260902220016 | 69 | 0.0 | 1.0 | 0.00 | 0.00 | 0.00 | 73 | 1018.1 | |
| 20260902215515 | 69 | 256 | 0.0 | 1.0 | 0.00 | 0.00 | 0.00 | 73 | 1018.1 |
| 20260902215015 | 69 | 0.0 | 0.0 | 0.00 | 0.00 | 0.00 | 73 | 1018.0 | |
| 20260902214515 | 69 | 0.0 | 0.0 | 0.00 | 0.00 | 0.00 | 74 | 1017.9 | |
| 20260902214135 | 69 | 0.0 | 0.0 | 0.00 | 0.01 | 0.00 | 74 | 1017.9 | |
| 20260902213516 | 69 | 0.0 | 0.0 | 0.00 | 0.01 | 0.00 | 74 | 1017.8 | |
| 20260902213015 | 69 | 0.0 | 0.0 | 0.00 | 0.01 | 0.00 | 74 | 1017.8 | |
| 20260902212515 | 69 | 0.0 | 0.0 | 0.00 | 0.01 | 0.00 | 74 | 1017.8 | |
| 20260902212015 | 69 | 0.0 | 0.0 | 0.00 | 0.01 | 0.00 | 74 | 1017.9 | |
| 20260902211515 | 69 | 0.0 | 2.0 | 0.00 | 0.01 | 0.00 | 74 | 1017.9 | |
| 20260902211015 | 69 | 260 | 0.0 | 2.0 | 0.00 | 0.02 | 0.00 | 73 | 1017.8 |
| 20260902210515 | 69 | 149 | 0.0 | 3.0 | 0.00 | 0.02 | 0.00 | 73 | 1017.7 |
| 20260902210015 | 69 | 9 | 1.0 | 3.0 | 0.00 | 0.02 | 0.00 | 74 | 1017.5 |
| 20260902205515 | 69 | 331 | 0.0 | 4.0 | 0.00 | 0.03 | 0.00 | 74 | 1017.6 |
| 20260902205035 | 69 | 160 | 0.0 | 4.0 | 0.00 | 0.03 | 0.00 | 74 | 1017.7 |
| 20260902204515 | 69 | 309 | 0.0 | 2.0 | 0.00 | 0.03 | 0.00 | 74 | 1017.9 |
| 20260902204015 | 70 | 208 | 0.0 | 2.0 | 0.00 | 0.03 | 0.00 | 74 | 1017.9 |
| 20260902203535 | 70 | 209 | 0.0 | 2.0 | 0.00 | 0.03 | 0.00 | 74 | 1018.0 |
| 20260902203015 | 70 | 202 | 0.0 | 3.0 | 0.00 | 0.03 | 0.00 | 74 | 1018.1 |
| 20260902202515 | 70 | 216 | 0.0 | 3.0 | 0.00 | 0.04 | 0.00 | 74 | 1018.2 |
| 20260902202015 | 71 | 0.0 | 9.0 | 0.00 | 0.04 | 0.00 | 73 | 1018.2 | |
| 20260902201515 | 71 | 180 | 1.0 | 9.0 | 0.00 | 0.05 | 0.00 | 71 | 1018.2 |
| 20260902201015 | 71 | 295 | 1.0 | 8.0 | 0.00 | 0.05 | 0.00 | 70 | 1018.2 |
| 20260902200515 | 71 | 51 | 2.0 | 8.0 | 0.00 | 0.05 | 0.00 | 72 | 1018.3 |
| 20260902200015 | 71 | 212 | 1.0 | 6.0 | 0.00 | 0.06 | 0.00 | 70 | 1018.4 |
| 20260902195515 | 71 | 109 | 1.0 | 6.0 | 0.00 | 0.06 | 0.00 | 72 | 1018.3 |
| 20260902195015 | 71 | 193 | 1.0 | 4.0 | 0.00 | 0.07 | 0.00 | 72 | 1018.3 |
| 20260902194515 | 71 | 162 | 1.0 | 4.0 | 0.00 | 0.07 | 0.00 | 73 | 1018.4 |
| 20260902194015 | 71 | 314 | 0.0 | 3.0 | 0.00 | 0.07 | 0.00 | 74 | 1018.5 |
| 20260902193515 | 71 | 308 | 0.0 | 2.0 | 0.00 | 0.09 | 0.00 | 74 | 1018.5 |
| 20260902193015 | 71 | 0.0 | 1.0 | 0.00 | 0.09 | 0.00 | 74 | 1018.6 | |
| 20260902192555 | 71 | 326 | 0.0 | 2.0 | 0.00 | 0.09 | 0.00 | 74 | 1018.7 |
| 20260902192015 | 71 | 319 | 0.0 | 2.0 | 0.00 | 0.10 | 0.00 | 74 | 1018.7 |
| 20260902191515 | 71 | 302 | 0.0 | 2.0 | 0.00 | 0.11 | 0.00 | 74 | 1018.7 |
| 20260902191015 | 71 | 274 | 0.0 | 3.0 | 0.00 | 0.11 | 0.00 | 73 | 1018.7 |
| 20260902190515 | 71 | 90 | 0.0 | 3.0 | 0.00 | 0.11 | 0.00 | 74 | 1018.8 |
| 20260902190015 | 71 | 0.0 | 2.0 | 0.00 | 0.12 | 0.00 | 74 | 1018.8 | |
| 20260902185535 | 71 | 56 | 0.0 | 5.0 | 0.00 | 0.13 | 0.00 | 73 | 1018.7 |
| 20260902185115 | 71 | 209 | 1.0 | 5.0 | 0.00 | 0.13 | 0.00 | 74 | 1018.7 |
| 20260902184515 | 71 | 138 | 1.0 | 4.0 | 0.00 | 0.13 | 0.00 | 73 | 1018.6 |
| 20260902184015 | 71 | 14 | 0.0 | 3.0 | 0.00 | 0.14 | 0.00 | 74 | 1018.6 |
| 20260902183515 | 71 | 224 | 0.0 | 3.0 | 0.00 | 0.14 | 0.00 | 73 | 1018.6 |
| 20260902183015 | 71 | 23 | 0.0 | 6.0 | 0.00 | 0.15 | 0.00 | 73 | 1018.7 |
| 20260902182515 | 71 | 201 | 1.0 | 6.0 | 0.00 | 0.15 | 0.00 | 73 | 1018.7 |
| 20260902182015 | 71 | 200 | 0.0 | 2.0 | 0.00 | 0.16 | 0.00 | 73 | 1018.7 |
| 20260902181515 | 71 | 205 | 0.0 | 2.0 | 0.00 | 0.17 | 0.00 | 73 | 1018.7 |
| 20260902181015 | 71 | 0.0 | 2.0 | 0.00 | 0.18 | 0.00 | 69 | 1018.7 | |
| 20260902180515 | 70 | 150 | 0.0 | 2.0 | 0.00 | 0.19 | 0.00 | 71 | 1018.7 |
| 20260902180035 | 70 | 261 | 0.0 | 2.0 | 0.00 | 0.19 | 0.00 | 69 | 1018.7 |
| 20260902175515 | 71 | 198 | 0.0 | 2.0 | 0.00 | 0.19 | 0.00 | 69 | 1018.8 |
| 20260902175015 | 71 | 221 | 0.0 | 2.0 | 0.00 | 0.19 | 0.00 | 71 | 1018.7 |
| 20260902174515 | 71 | 207 | 0.0 | 2.0 | 0.00 | 0.19 | 0.00 | 71 | 1018.7 |
| 20260902174015 | 71 | 0.0 | 1.0 | 0.00 | 0.19 | 0.00 | 70 | 1018.7 | |
| 20260902173515 | 71 | 198 | 0.0 | 2.0 | 0.00 | 0.19 | 0.00 | 71 | 1018.7 |
| 20260902173015 | 71 | 182 | 0.0 | 4.0 | 0.00 | 0.19 | 0.00 | 72 | 1018.7 |
| 20260902172535 | 71 | 170 | 0.0 | 4.0 | 0.00 | 0.19 | 0.00 | 71 | 1018.7 |
| 20260902172035 | 71 | 231 | 1.0 | 4.0 | 0.00 | 0.19 | 0.00 | 70 | 1018.7 |
| 20260902171515 | 71 | 36 | 0.0 | 3.0 | 0.00 | 0.19 | 0.00 | 69 | 1018.7 |
| 20260902171015 | 71 | 345 | 0.0 | 2.0 | 0.00 | 0.19 | 0.00 | 71 | 1018.8 |
| 20260902170555 | 71 | 315 | 0.0 | 5.0 | 0.00 | 0.19 | 0.00 | 67 | 1018.8 |
| 20260902170035 | 71 | 354 | 1.0 | 5.0 | 0.00 | 0.20 | 0.00 | 70 | 1018.9 |
| 20260902165515 | 71 | 346 | 1.0 | 3.0 | 0.00 | 0.20 | 0.00 | 72 | 1019.0 |
| 20260902165015 | 71 | 309 | 0.0 | 4.0 | 0.00 | 0.21 | 0.00 | 67 | 1019.0 |
| 20260902164515 | 70 | 205 | 1.0 | 4.0 | 0.00 | 0.21 | 0.00 | 71 | 1019.0 |
| 20260902164015 | 70 | 49 | 0.0 | 3.0 | 0.00 | 0.22 | 0.00 | 71 | 1019.1 |
| 20260902163515 | 70 | 162 | 0.0 | 3.0 | 0.00 | 0.23 | 0.00 | 72 | 1019.2 |
| 20260902163017 | 70 | 337 | 0.0 | 3.0 | 0.00 | 0.23 | 0.00 | 70 | 1019.3 |
| 20260902162517 | 70 | 306 | 1.0 | 3.0 | 0.00 | 0.23 | 0.00 | 69 | 1019.4 |
| 20260902162017 | 70 | 258 | 1.0 | 3.0 | 0.00 | 0.23 | 0.00 | 68 | 1019.4 |
| 20260902161516 | 69 | 198 | 0.0 | 3.0 | 0.00 | 0.23 | 0.00 | 54 | 1019.4 |
| 20260902161017 | 69 | 317 | 0.0 | 2.0 | 0.00 | 0.23 | 0.00 | 54 | 1019.6 |
| 20260902160516 | 69 | 312 | 0.0 | 2.0 | 0.00 | 0.23 | 0.00 | 54 | 1019.7 |
| 20260902160037 | 69 | 0.0 | 4.0 | 0.00 | 0.23 | 0.00 | 54 | 1019.7 | |
| 20260902155516 | 69 | 250 | 1.0 | 4.0 | 0.00 | 0.23 | 0.00 | 59 | 1019.6 |
| 20260902155016 | 68 | 187 | 1.0 | 5.0 | 0.00 | 0.23 | 0.00 | 54 | 1019.6 |
| 20260902154536 | 68 | 185 | 0.0 | 5.0 | 0.00 | 0.23 | 0.00 | 44 | 1019.7 |
| 20260902154036 | 68 | 327 | 0.0 | 1.0 | 0.00 | 0.23 | 0.00 | 40 | 1019.8 |
| 20260902153517 | 68 | 334 | 0.0 | 1.0 | 0.00 | 0.23 | 0.00 | 43 | 1019.8 |
| 20260902153017 | 68 | 0.0 | 1.0 | 0.00 | 0.23 | 0.00 | 34 | 1020.0 | |
| 20260902152517 | 68 | 338 | 0.0 | 4.0 | 0.00 | 0.23 | 0.00 | 38 | 1019.9 |
| 20260902152036 | 68 | 220 | 0.0 | 4.0 | 0.00 | 0.23 | 0.00 | 39 | 1019.9 |
| 20260902151516 | 67 | 0.0 | 3.0 | 0.00 | 0.23 | 0.00 | 35 | 1020.0 | |
| 20260902151017 | 67 | 198 | 0.0 | 3.0 | 0.00 | 0.23 | 0.00 | 29 | 1020.0 |
| 20260902150516 | 67 | 214 | 0.0 | 3.0 | 0.00 | 0.23 | 0.00 | 25 | 1019.9 |
| 20260902150037 | 67 | 0.0 | 0.0 | 0.00 | 0.23 | 0.00 | 16 | 1019.9 | |
| 20260902145534 | 67 | 0.0 | 0.0 | 0.00 | 0.23 | 0.00 | 18 | 1020.0 | |
| 20260902145016 | 66 | 0.0 | 0.0 | 0.00 | 0.23 | 0.00 | 14 | 1020.2 | |
| 20260902144516 | 66 | 0.0 | 1.0 | 0.00 | 0.23 | 0.00 | 9 | 1020.1 | |
| 20260902144036 | 66 | 212 | 0.0 | 1.0 | 0.00 | 0.23 | 0.00 | 9 | 1020.1 |
| 20260902143516 | 66 | 0.0 | 1.0 | 0.00 | 0.23 | 0.00 | 7 | 1020.0 | |
| 20260902143016 | 65 | 212 | 0.0 | 2.0 | 0.00 | 0.23 | 0.00 | 8 | 1019.8 |
| 20260902142536 | 65 | 188 | 0.0 | 2.0 | 0.00 | 0.23 | 0.00 | 7 | 1019.8 |
| 20260902142016 | 65 | 190 | 0.0 | 1.0 | 0.00 | 0.23 | 0.00 | 7 | 1019.7 |
| 20260902141516 | 65 | 0.0 | 2.0 | 0.00 | 0.23 | 0.00 | 7 | 1019.7 | |
| 20260902141016 | 65 | 196 | 0.0 | 2.0 | 0.00 | 0.23 | 0.00 | 8 | 1019.8 |
| 20260902140516 | 65 | 0.0 | 1.0 | 0.00 | 0.23 | 0.00 | 8 | 1019.7 | |
| 20260902140037 | 65 | 332 | 0.0 | 3.0 | 0.00 | 0.23 | 0.00 | 9 | 1019.5 |
| 20260902135516 | 65 | 331 | 0.0 | 3.0 | 0.00 | 0.23 | 0.00 | 9 | 1019.3 |
| 20260902135016 | 65 | 293 | 0.0 | 2.0 | 0.00 | 0.23 | 0.00 | 9 | 1019.1 |
| 20260902134517 | 64 | 229 | 0.0 | 2.0 | 0.00 | 0.23 | 0.00 | 10 | 1019.3 |
| 20260902134016 | 64 | 0.0 | 0.0 | 0.00 | 0.23 | 0.00 | 10 | 1019.3 | |
| 20260902133516 | 64 | 0.0 | 1.0 | 0.00 | 0.23 | 0.00 | 10 | 1019.3 | |
| 20260902133016 | 64 | 349 | 0.0 | 1.0 | 0.00 | 0.23 | 0.00 | 10 | 1019.3 |
| 20260902132536 | 64 | 349 | 0.0 | 2.0 | 0.00 | 0.23 | 0.00 | 10 | 1019.2 |
| 20260902132016 | 64 | 329 | 0.0 | 2.0 | 0.00 | 0.23 | 0.00 | 10 | 1019.2 |
| 20260902131516 | 64 | 355 | 0.0 | 1.0 | 0.00 | 0.23 | 0.00 | 10 | 1019.1 |
| 20260902131016 | 64 | 0.0 | 0.0 | 0.00 | 0.23 | 0.00 | 10 | 1019.3 | |
| 20260902130516 | 64 | 0.0 | 0.0 | 0.00 | 0.23 | 0.00 | 10 | 1019.4 | |
| 20260902130016 | 63 | 0.0 | 0.0 | 0.00 | 0.23 | 0.00 | 11 | 1019.5 | |
| 20260902125516 | 63 | 0.0 | 0.0 | 0.00 | 0.24 | 0.00 | 11 | 1019.6 | |
| 20260902125016 | 63 | 0.0 | 0.0 | 0.00 | 0.24 | 0.00 | 11 | 1019.6 | |
| 20260902124516 | 63 | 0.0 | 0.0 | 0.00 | 0.25 | 0.00 | 11 | 1019.5 | |
| 20260902124036 | 63 | 0.0 | 0.0 | 0.00 | 0.25 | 0.00 | 11 | 1019.5 | |
| 20260902123516 | 63 | 0.0 | 0.0 | 0.00 | 0.26 | 0.00 | 11 | 1019.5 | |
| 20260902123036 | 63 | 0.0 | 0.0 | 0.00 | 0.27 | 0.00 | 11 | 1019.7 | |
| 20260902122516 | 63 | 0.0 | 0.0 | 0.00 | 0.28 | 0.00 | 11 | 1019.7 | |
| 20260902122016 | 62 | 0.0 | 0.0 | 0.00 | 0.29 | 0.00 | 11 | 1019.6 | |
| 20260902121516 | 62 | 0.0 | 0.0 | 0.00 | 0.31 | 0.00 | 11 | 1019.5 | |
| 20260902121016 | 62 | 0.0 | 0.0 | 0.00 | 0.32 | 0.00 | 11 | 1019.5 | |
| 20260902120516 | 62 | 0.0 | 0.0 | 0.00 | 0.32 | 0.00 | 11 | 1019.6 | |
| 20260902120016 | 62 | 0.0 | 0.0 | 0.00 | 0.32 | 0.00 | 11 | 1019.6 | |
| 20260902115537 | 62 | 0.0 | 0.0 | 0.00 | 0.33 | 0.00 | 11 | 1019.7 | |
| 20260902115016 | 62 | 0.0 | 0.0 | 0.00 | 0.33 | 0.00 | 11 | 1019.7 | |
| 20260902114516 | 62 | 0.0 | 0.0 | 0.00 | 0.34 | 0.00 | 11 | 1019.7 | |
| 20260902114016 | 62 | 0.0 | 0.0 | 0.00 | 0.34 | 0.00 | 11 | 1019.7 | |
| 20260902113516 | 62 | 0.0 | 0.0 | 0.00 | 0.34 | 0.00 | 11 | 1019.8 |